sensor_id;sensor_type;location;lat;lon;timestamp;temperature;humidity
62998;DHT22;55949;52.590;7.330;2023-11-21T00:00:07;11.70;99.90
62998;DHT22;55949;52.590;7.330;2023-11-21T00:01:12;11.70;99.90
62998;DHT22;55949;52.590;7.330;2023-11-21T00:02:13;11.80;99.90
62998;DHT22;55949;52.590;7.330;2023-11-21T00:03:13;11.80;99.90
62998;DHT22;55949;52.590;7.330;2023-11-21T00:04:15;11.90;99.90
62998;DHT22;55949;52.590;7.330;2023-11-21T00:05:16;11.90;99.90
62998;DHT22;55949;52.590;7.330;2023-11-21T00:06:17;11.90;99.90
62998;DHT22;55949;52.590;7.330;2023-11-21T00:07:21;12.00;99.90
62998;DHT22;55949;52.590;7.330;2023-11-21T00:08:22;12.00;99.90
62998;DHT22;55949;52.590;7.330;2023-11-21T00:09:23;12.10;99.90
62998;DHT22;55949;52.590;7.330;2023-11-21T00:10:23;12.20;99.90
62998;DHT22;55949;52.590;7.330;2023-11-21T00:11:24;12.20;99.90
62998;DHT22;55949;52.590;7.330;2023-11-21T00:12:25;12.30;99.90
62998;DHT22;55949;52.590;7.330;2023-11-21T00:13:26;12.30;99.90
62998;DHT22;55949;52.590;7.330;2023-11-21T00:14:27;12.30;99.90
62998;DHT22;55949;52.590;7.330;2023-11-21T00:15:27;12.10;99.90
62998;DHT22;55949;52.590;7.330;2023-11-21T00:16:28;12.20;99.90
62998;DHT22;55949;52.590;7.330;2023-11-21T00:17:28;12.30;99.90
62998;DHT22;55949;52.590;7.330;2023-11-21T00:18:29;12.20;99.90
62998;DHT22;55949;52.590;7.330;2023-11-21T00:19:30;12.20;99.90
62998;DHT22;55949;52.590;7.330;2023-11-21T00:20:30;12.20;99.90
62998;DHT22;55949;52.590;7.330;2023-11-21T00:21:31;12.40;99.90
62998;DHT22;55949;52.590;7.330;2023-11-21T00:22:35;12.50;99.90
62998;DHT22;55949;52.590;7.330;2023-11-21T00:23:36;12.70;99.90
62998;DHT22;55949;52.590;7.330;2023-11-21T00:24:37;12.70;99.90
62998;DHT22;55949;52.590;7.330;2023-11-21T00:25:37;12.70;99.90
62998;DHT22;55949;52.590;7.330;2023-11-21T00:26:38;12.70;99.90
62998;DHT22;55949;52.590;7.330;2023-11-21T00:27:39;12.60;99.90
62998;DHT22;55949;52.590;7.330;2023-11-21T00:28:40;12.50;99.90
62998;DHT22;55949;52.590;7.330;2023-11-21T00:29:41;12.60;99.90
62998;DHT22;55949;52.590;7.330;2023-11-21T00:30:41;12.60;99.90
62998;DHT22;55949;52.590;7.330;2023-11-21T00:31:43;12.70;99.90
62998;DHT22;55949;52.590;7.330;2023-11-21T00:32:43;12.60;99.90
62998;DHT22;55949;52.590;7.330;2023-11-21T00:33:44;12.70;99.90
62998;DHT22;55949;52.590;7.330;2023-11-21T00:34:45;12.50;99.90
62998;DHT22;55949;52.590;7.330;2023-11-21T00:35:46;12.50;99.90
62998;DHT22;55949;52.590;7.330;2023-11-21T00:36:46;12.60;99.90
62998;DHT22;55949;52.590;7.330;2023-11-21T00:37:47;12.50;99.90
62998;DHT22;55949;52.590;7.330;2023-11-21T00:38:50;12.50;99.90
62998;DHT22;55949;52.590;7.330;2023-11-21T00:39:50;12.60;99.90
62998;DHT22;55949;52.590;7.330;2023-11-21T00:40:51;12.30;99.90
62998;DHT22;55949;52.590;7.330;2023-11-21T00:41:53;12.30;99.90
62998;DHT22;55949;52.590;7.330;2023-11-21T00:42:54;12.20;99.90
62998;DHT22;55949;52.590;7.330;2023-11-21T00:43:56;12.00;99.90
62998;DHT22;55949;52.590;7.330;2023-11-21T00:44:57;11.90;99.90
62998;DHT22;55949;52.590;7.330;2023-11-21T00:45:57;12.10;99.90
62998;DHT22;55949;52.590;7.330;2023-11-21T00:46:58;12.00;99.90
62998;DHT22;55949;52.590;7.330;2023-11-21T00:47:58;12.20;99.90
62998;DHT22;55949;52.590;7.330;2023-11-21T00:48:59;12.20;99.90
62998;DHT22;55949;52.590;7.330;2023-11-21T00:50:00;12.40;99.90
62998;DHT22;55949;52.590;7.330;2023-11-21T00:51:00;12.30;99.90
62998;DHT22;55949;52.590;7.330;2023-11-21T00:52:01;12.30;99.90
62998;DHT22;55949;52.590;7.330;2023-11-21T00:53:03;12.30;99.90
62998;DHT22;55949;52.590;7.330;2023-11-21T00:54:04;12.40;99.90
62998;DHT22;55949;52.590;7.330;2023-11-21T00:55:05;12.50;99.90
62998;DHT22;55949;52.590;7.330;2023-11-21T00:56:07;12.40;99.90
62998;DHT22;55949;52.590;7.330;2023-11-21T00:57:09;12.20;99.90
62998;DHT22;55949;52.590;7.330;2023-11-21T00:58:09;12.30;99.90
62998;DHT22;55949;52.590;7.330;2023-11-21T00:59:10;12.30;99.90
62998;DHT22;55949;52.590;7.330;2023-11-21T01:00:11;12.40;99.90
62998;DHT22;55949;52.590;7.330;2023-11-21T01:01:17;12.40;99.90
62998;DHT22;55949;52.590;7.330;2023-11-21T01:02:18;12.40;99.90
62998;DHT22;55949;52.590;7.330;2023-11-21T01:03:19;12.50;99.90
62998;DHT22;55949;52.590;7.330;2023-11-21T01:04:19;12.50;99.90
62998;DHT22;55949;52.590;7.330;2023-11-21T01:05:20;12.50;99.90
62998;DHT22;55949;52.590;7.330;2023-11-21T01:06:21;12.50;99.90
62998;DHT22;55949;52.590;7.330;2023-11-21T01:07:21;12.60;99.90
62998;DHT22;55949;52.590;7.330;2023-11-21T01:08:22;12.60;99.90
62998;DHT22;55949;52.590;7.330;2023-11-21T01:09:24;12.60;99.90
62998;DHT22;55949;52.590;7.330;2023-11-21T01:10:26;12.70;99.90
62998;DHT22;55949;52.590;7.330;2023-11-21T01:11:27;12.60;99.90
62998;DHT22;55949;52.590;7.330;2023-11-21T01:12:27;12.60;99.90
62998;DHT22;55949;52.590;7.330;2023-11-21T01:13:28;12.70;99.90
62998;DHT22;55949;52.590;7.330;2023-11-21T01:14:29;12.80;99.90
62998;DHT22;55949;52.590;7.330;2023-11-21T01:15:29;12.90;99.90
62998;DHT22;55949;52.590;7.330;2023-11-21T01:16:30;13.00;99.90
62998;DHT22;55949;52.590;7.330;2023-11-21T01:17:33;13.10;99.90
62998;DHT22;55949;52.590;7.330;2023-11-21T01:18:37;13.10;99.90
62998;DHT22;55949;52.590;7.330;2023-11-21T01:19:38;13.30;99.90
62998;DHT22;55949;52.590;7.330;2023-11-21T01:20:39;13.30;99.90
62998;DHT22;55949;52.590;7.330;2023-11-21T01:21:40;13.10;99.90
62998;DHT22;55949;52.590;7.330;2023-11-21T01:22:41;12.90;99.90
62998;DHT22;55949;52.590;7.330;2023-11-21T01:23:41;12.90;99.90
62998;DHT22;55949;52.590;7.330;2023-11-21T01:24:42;12.90;99.90
62998;DHT22;55949;52.590;7.330;2023-11-21T01:25:43;12.90;99.90
62998;DHT22;55949;52.590;7.330;2023-11-21T01:26:43;12.70;99.90
62998;DHT22;55949;52.590;7.330;2023-11-21T01:27:47;12.70;99.90
62998;DHT22;55949;52.590;7.330;2023-11-21T01:28:47;12.70;99.90
62998;DHT22;55949;52.590;7.330;2023-11-21T01:29:51;12.80;99.90
62998;DHT22;55949;52.590;7.330;2023-11-21T01:30:54;12.60;99.90
62998;DHT22;55949;52.590;7.330;2023-11-21T01:31:56;12.60;99.90
62998;DHT22;55949;52.590;7.330;2023-11-21T01:32:58;12.50;99.90
62998;DHT22;55949;52.590;7.330;2023-11-21T01:33:59;12.50;99.90
62998;DHT22;55949;52.590;7.330;2023-11-21T01:35:00;12.50;99.90
62998;DHT22;55949;52.590;7.330;2023-11-21T01:36:01;12.40;99.90
62998;DHT22;55949;52.590;7.330;2023-11-21T01:37:02;12.40;99.90
62998;DHT22;55949;52.590;7.330;2023-11-21T01:38:05;12.50;99.90
62998;DHT22;55949;52.590;7.330;2023-11-21T01:39:08;12.60;99.90
62998;DHT22;55949;52.590;7.330;2023-11-21T01:40:09;12.60;99.90
62998;DHT22;55949;52.590;7.330;2023-11-21T01:41:14;12.70;99.90
62998;DHT22;55949;52.590;7.330;2023-11-21T01:42:15;12.80;99.90
62998;DHT22;55949;52.590;7.330;2023-11-21T01:43:15;12.80;99.90
62998;DHT22;55949;52.590;7.330;2023-11-21T01:44:17;12.70;99.90
62998;DHT22;55949;52.590;7.330;2023-11-21T01:45:19;12.70;99.90
62998;DHT22;55949;52.590;7.330;2023-11-21T01:46:21;12.90;99.90
62998;DHT22;55949;52.590;7.330;2023-11-21T01:47:22;12.90;99.90
62998;DHT22;55949;52.590;7.330;2023-11-21T01:48:23;12.80;99.90
62998;DHT22;55949;52.590;7.330;2023-11-21T01:49:24;12.70;99.90
62998;DHT22;55949;52.590;7.330;2023-11-21T01:50:25;12.70;99.90
62998;DHT22;55949;52.590;7.330;2023-11-21T01:51:26;12.70;99.90
62998;DHT22;55949;52.590;7.330;2023-11-21T01:52:27;12.70;99.90
62998;DHT22;55949;52.590;7.330;2023-11-21T01:53:27;12.80;99.90
62998;DHT22;55949;52.590;7.330;2023-11-21T01:54:28;12.70;99.90
62998;DHT22;55949;52.590;7.330;2023-11-21T01:55:33;12.80;99.90
62998;DHT22;55949;52.590;7.330;2023-11-21T01:56:34;12.70;99.90
62998;DHT22;55949;52.590;7.330;2023-11-21T01:57:38;12.80;99.90
62998;DHT22;55949;52.590;7.330;2023-11-21T01:58:40;12.80;99.90
62998;DHT22;55949;52.590;7.330;2023-11-21T01:59:42;12.90;99.90
62998;DHT22;55949;52.590;7.330;2023-11-21T02:00:44;12.80;99.90
62998;DHT22;55949;52.590;7.330;2023-11-21T02:01:44;12.60;99.90
62998;DHT22;55949;52.590;7.330;2023-11-21T02:02:48;12.70;99.90
62998;DHT22;55949;52.590;7.330;2023-11-21T02:03:48;12.80;99.90
62998;DHT22;55949;52.590;7.330;2023-11-21T02:04:49;12.90;99.90
62998;DHT22;55949;52.590;7.330;2023-11-21T02:05:50;13.00;99.90
62998;DHT22;55949;52.590;7.330;2023-11-21T02:06:50;13.00;99.90
62998;DHT22;55949;52.590;7.330;2023-11-21T02:07:51;12.90;99.90
62998;DHT22;55949;52.590;7.330;2023-11-21T02:08:52;12.90;99.90
62998;DHT22;55949;52.590;7.330;2023-11-21T02:09:53;13.00;99.90
62998;DHT22;55949;52.590;7.330;2023-11-21T02:10:54;13.00;99.90
62998;DHT22;55949;52.590;7.330;2023-11-21T02:11:55;13.00;99.90
62998;DHT22;55949;52.590;7.330;2023-11-21T02:12:56;13.00;99.90
62998;DHT22;55949;52.590;7.330;2023-11-21T02:13:59;12.80;99.90
62998;DHT22;55949;52.590;7.330;2023-11-21T02:14:59;12.90;99.90
62998;DHT22;55949;52.590;7.330;2023-11-21T02:16:02;12.90;99.90
62998;DHT22;55949;52.590;7.330;2023-11-21T02:17:03;12.80;99.90
62998;DHT22;55949;52.590;7.330;2023-11-21T02:18:04;12.70;99.90
62998;DHT22;55949;52.590;7.330;2023-11-21T02:19:07;12.70;99.90
62998;DHT22;55949;52.590;7.330;2023-11-21T02:20:13;12.70;99.90
62998;DHT22;55949;52.590;7.330;2023-11-21T02:21:18;12.60;99.90
62998;DHT22;55949;52.590;7.330;2023-11-21T02:22:19;12.40;99.90
62998;DHT22;55949;52.590;7.330;2023-11-21T02:23:20;12.50;99.90
62998;DHT22;55949;52.590;7.330;2023-11-21T02:24:21;12.60;99.90
62998;DHT22;55949;52.590;7.330;2023-11-21T02:25:22;12.50;99.90
62998;DHT22;55949;52.590;7.330;2023-11-21T02:26:23;12.60;99.90
62998;DHT22;55949;52.590;7.330;2023-11-21T02:27:24;12.60;99.90
62998;DHT22;55949;52.590;7.330;2023-11-21T02:28:25;12.70;99.90
62998;DHT22;55949;52.590;7.330;2023-11-21T02:29:29;12.70;99.90
62998;DHT22;55949;52.590;7.330;2023-11-21T02:30:30;12.70;99.90
62998;DHT22;55949;52.590;7.330;2023-11-21T02:31:32;12.70;99.90
62998;DHT22;55949;52.590;7.330;2023-11-21T02:32:33;12.70;99.90
62998;DHT22;55949;52.590;7.330;2023-11-21T02:33:34;12.60;99.90
62998;DHT22;55949;52.590;7.330;2023-11-21T02:34:35;12.60;99.90
62998;DHT22;55949;52.590;7.330;2023-11-21T02:35:36;12.50;99.90
62998;DHT22;55949;52.590;7.330;2023-11-21T02:36:38;12.60;99.90
62998;DHT22;55949;52.590;7.330;2023-11-21T02:37:39;12.60;99.90
62998;DHT22;55949;52.590;7.330;2023-11-21T02:38:41;12.50;99.90
62998;DHT22;55949;52.590;7.330;2023-11-21T02:39:41;12.60;99.90
62998;DHT22;55949;52.590;7.330;2023-11-21T02:40:43;12.40;99.90
62998;DHT22;55949;52.590;7.330;2023-11-21T02:41:44;12.50;99.90
62998;DHT22;55949;52.590;7.330;2023-11-21T02:42:44;12.50;99.90
62998;DHT22;55949;52.590;7.330;2023-11-21T02:43:45;12.50;99.90
62998;DHT22;55949;52.590;7.330;2023-11-21T02:44:46;12.60;99.90
62998;DHT22;55949;52.590;7.330;2023-11-21T02:45:47;12.40;99.90
62998;DHT22;55949;52.590;7.330;2023-11-21T02:46:47;12.40;99.90
62998;DHT22;55949;52.590;7.330;2023-11-21T02:47:48;12.40;99.90
62998;DHT22;55949;52.590;7.330;2023-11-21T02:48:53;12.50;99.90
62998;DHT22;55949;52.590;7.330;2023-11-21T02:49:55;12.60;99.90
62998;DHT22;55949;52.590;7.330;2023-11-21T02:50:55;12.70;99.90
62998;DHT22;55949;52.590;7.330;2023-11-21T02:51:56;12.70;99.90
62998;DHT22;55949;52.590;7.330;2023-11-21T02:52:57;12.70;99.90
62998;DHT22;55949;52.590;7.330;2023-11-21T02:54:00;12.80;99.90
62998;DHT22;55949;52.590;7.330;2023-11-21T02:55:03;12.80;99.90
62998;DHT22;55949;52.590;7.330;2023-11-21T02:56:05;12.80;99.90
62998;DHT22;55949;52.590;7.330;2023-11-21T02:57:06;12.70;99.90
62998;DHT22;55949;52.590;7.330;2023-11-21T02:58:06;12.60;99.90
62998;DHT22;55949;52.590;7.330;2023-11-21T02:59:07;12.80;99.90
62998;DHT22;55949;52.590;7.330;2023-11-21T03:00:08;12.50;99.90
62998;DHT22;55949;52.590;7.330;2023-11-21T03:01:13;12.60;99.90
62998;DHT22;55949;52.590;7.330;2023-11-21T03:02:13;12.60;99.90
62998;DHT22;55949;52.590;7.330;2023-11-21T03:03:16;12.80;99.90
62998;DHT22;55949;52.590;7.330;2023-11-21T03:04:17;12.80;99.90
62998;DHT22;55949;52.590;7.330;2023-11-21T03:05:18;12.70;99.90
62998;DHT22;55949;52.590;7.330;2023-11-21T03:06:19;12.50;99.90
62998;DHT22;55949;52.590;7.330;2023-11-21T03:07:20;12.50;99.90
62998;DHT22;55949;52.590;7.330;2023-11-21T03:08:22;12.60;99.90
62998;DHT22;55949;52.590;7.330;2023-11-21T03:09:23;12.70;99.90
62998;DHT22;55949;52.590;7.330;2023-11-21T03:10:23;12.80;99.90
62998;DHT22;55949;52.590;7.330;2023-11-21T03:11:24;12.90;99.90
62998;DHT22;55949;52.590;7.330;2023-11-21T03:12:24;12.90;99.90
62998;DHT22;55949;52.590;7.330;2023-11-21T03:13:26;12.90;99.90
62998;DHT22;55949;52.590;7.330;2023-11-21T03:14:26;13.00;99.90
62998;DHT22;55949;52.590;7.330;2023-11-21T03:15:27;13.10;99.90
62998;DHT22;55949;52.590;7.330;2023-11-21T03:16:28;13.10;99.90
62998;DHT22;55949;52.590;7.330;2023-11-21T03:17:29;13.10;99.90
62998;DHT22;55949;52.590;7.330;2023-11-21T03:18:30;13.10;99.90
62998;DHT22;55949;52.590;7.330;2023-11-21T03:19:31;13.10;99.90
62998;DHT22;55949;52.590;7.330;2023-11-21T03:20:31;13.00;99.90
62998;DHT22;55949;52.590;7.330;2023-11-21T03:21:32;12.90;99.90
62998;DHT22;55949;52.590;7.330;2023-11-21T03:22:33;12.90;99.90
62998;DHT22;55949;52.590;7.330;2023-11-21T03:23:33;12.90;99.90
62998;DHT22;55949;52.590;7.330;2023-11-21T03:24:34;13.00;99.90
62998;DHT22;55949;52.590;7.330;2023-11-21T03:25:35;13.00;99.90
62998;DHT22;55949;52.590;7.330;2023-11-21T03:26:36;13.00;99.90
62998;DHT22;55949;52.590;7.330;2023-11-21T03:27:37;13.00;99.90
62998;DHT22;55949;52.590;7.330;2023-11-21T03:28:39;13.00;99.90
62998;DHT22;55949;52.590;7.330;2023-11-21T03:29:40;13.10;99.90
62998;DHT22;55949;52.590;7.330;2023-11-21T03:30:40;13.10;99.90
62998;DHT22;55949;52.590;7.330;2023-11-21T03:31:41;13.10;99.90
62998;DHT22;55949;52.590;7.330;2023-11-21T03:32:42;13.10;99.90
62998;DHT22;55949;52.590;7.330;2023-11-21T03:33:42;13.10;99.90
62998;DHT22;55949;52.590;7.330;2023-11-21T03:34:54;12.90;99.90
62998;DHT22;55949;52.590;7.330;2023-11-21T03:35:56;13.00;99.90
62998;DHT22;55949;52.590;7.330;2023-11-21T03:36:57;12.80;99.90
62998;DHT22;55949;52.590;7.330;2023-11-21T03:37:59;12.80;99.90
62998;DHT22;55949;52.590;7.330;2023-11-21T03:38:59;12.70;99.90
62998;DHT22;55949;52.590;7.330;2023-11-21T03:40:00;12.80;99.90
62998;DHT22;55949;52.590;7.330;2023-11-21T03:41:01;12.90;99.90
62998;DHT22;55949;52.590;7.330;2023-11-21T03:42:01;12.90;99.90
62998;DHT22;55949;52.590;7.330;2023-11-21T03:43:02;12.70;99.90
62998;DHT22;55949;52.590;7.330;2023-11-21T03:44:03;12.80;99.90
62998;DHT22;55949;52.590;7.330;2023-11-21T03:45:05;13.00;99.90
62998;DHT22;55949;52.590;7.330;2023-11-21T03:46:06;13.10;99.90
62998;DHT22;55949;52.590;7.330;2023-11-21T03:47:07;13.10;99.90
62998;DHT22;55949;52.590;7.330;2023-11-21T03:48:08;13.20;99.90
62998;DHT22;55949;52.590;7.330;2023-11-21T03:49:09;13.30;99.90
62998;DHT22;55949;52.590;7.330;2023-11-21T03:50:10;13.20;99.90
62998;DHT22;55949;52.590;7.330;2023-11-21T03:51:11;13.20;99.90
62998;DHT22;55949;52.590;7.330;2023-11-21T03:52:11;13.10;99.90
62998;DHT22;55949;52.590;7.330;2023-11-21T03:53:12;13.10;99.90
62998;DHT22;55949;52.590;7.330;2023-11-21T03:54:13;13.10;99.90
62998;DHT22;55949;52.590;7.330;2023-11-21T03:55:14;13.10;99.90
62998;DHT22;55949;52.590;7.330;2023-11-21T03:56:15;13.10;99.90
62998;DHT22;55949;52.590;7.330;2023-11-21T03:57:16;13.40;99.90
62998;DHT22;55949;52.590;7.330;2023-11-21T03:58:17;13.40;99.90
62998;DHT22;55949;52.590;7.330;2023-11-21T03:59:17;13.40;99.90
62998;DHT22;55949;52.590;7.330;2023-11-21T04:00:18;13.30;99.90
62998;DHT22;55949;52.590;7.330;2023-11-21T04:01:21;13.40;99.90
62998;DHT22;55949;52.590;7.330;2023-11-21T04:02:22;13.40;99.90
62998;DHT22;55949;52.590;7.330;2023-11-21T04:03:23;13.40;99.90
62998;DHT22;55949;52.590;7.330;2023-11-21T04:04:23;13.40;99.90
62998;DHT22;55949;52.590;7.330;2023-11-21T04:05:24;13.20;99.90
62998;DHT22;55949;52.590;7.330;2023-11-21T04:06:25;12.80;99.90
62998;DHT22;55949;52.590;7.330;2023-11-21T04:07:25;12.90;99.90
62998;DHT22;55949;52.590;7.330;2023-11-21T04:08:26;13.00;99.90
62998;DHT22;55949;52.590;7.330;2023-11-21T04:09:27;13.00;99.90
62998;DHT22;55949;52.590;7.330;2023-11-21T04:10:28;12.90;99.90
62998;DHT22;55949;52.590;7.330;2023-11-21T04:11:29;12.80;99.90
62998;DHT22;55949;52.590;7.330;2023-11-21T04:12:30;13.00;99.90
62998;DHT22;55949;52.590;7.330;2023-11-21T04:13:31;13.00;99.90
62998;DHT22;55949;52.590;7.330;2023-11-21T04:14:31;13.00;99.90
62998;DHT22;55949;52.590;7.330;2023-11-21T04:15:32;12.90;99.90
62998;DHT22;55949;52.590;7.330;2023-11-21T04:16:33;12.90;99.90
62998;DHT22;55949;52.590;7.330;2023-11-21T04:17:34;12.90;99.90
62998;DHT22;55949;52.590;7.330;2023-11-21T04:18:38;12.80;99.90
62998;DHT22;55949;52.590;7.330;2023-11-21T04:19:39;12.90;99.90
62998;DHT22;55949;52.590;7.330;2023-11-21T04:20:41;13.00;99.90
62998;DHT22;55949;52.590;7.330;2023-11-21T04:21:42;12.90;99.90
62998;DHT22;55949;52.590;7.330;2023-11-21T04:22:44;13.00;99.90
62998;DHT22;55949;52.590;7.330;2023-11-21T04:23:45;13.00;99.90
62998;DHT22;55949;52.590;7.330;2023-11-21T04:24:45;13.00;99.90
62998;DHT22;55949;52.590;7.330;2023-11-21T04:25:46;13.00;99.90
62998;DHT22;55949;52.590;7.330;2023-11-21T04:26:47;12.90;99.90
62998;DHT22;55949;52.590;7.330;2023-11-21T04:27:48;13.00;99.90
62998;DHT22;55949;52.590;7.330;2023-11-21T04:28:48;13.10;99.90
62998;DHT22;55949;52.590;7.330;2023-11-21T04:29:50;13.10;99.90
62998;DHT22;55949;52.590;7.330;2023-11-21T04:30:51;13.10;99.90
62998;DHT22;55949;52.590;7.330;2023-11-21T04:31:51;12.90;99.90
62998;DHT22;55949;52.590;7.330;2023-11-21T04:32:52;12.50;99.90
62998;DHT22;55949;52.590;7.330;2023-11-21T04:33:52;12.80;99.90
62998;DHT22;55949;52.590;7.330;2023-11-21T04:34:53;12.80;99.90
62998;DHT22;55949;52.590;7.330;2023-11-21T04:35:54;12.70;99.90
62998;DHT22;55949;52.590;7.330;2023-11-21T04:36:55;12.70;99.90
62998;DHT22;55949;52.590;7.330;2023-11-21T04:37:55;12.70;99.90
62998;DHT22;55949;52.590;7.330;2023-11-21T04:38:57;12.70;99.90
62998;DHT22;55949;52.590;7.330;2023-11-21T04:39:58;12.60;99.90
62998;DHT22;55949;52.590;7.330;2023-11-21T04:40:59;12.60;99.90
62998;DHT22;55949;52.590;7.330;2023-11-21T04:42:00;12.70;99.90
62998;DHT22;55949;52.590;7.330;2023-11-21T04:43:00;12.90;99.90
62998;DHT22;55949;52.590;7.330;2023-11-21T04:44:02;13.10;99.90
62998;DHT22;55949;52.590;7.330;2023-11-21T04:45:06;13.20;99.90
62998;DHT22;55949;52.590;7.330;2023-11-21T04:46:11;13.20;99.90
62998;DHT22;55949;52.590;7.330;2023-11-21T04:47:12;13.20;99.90
62998;DHT22;55949;52.590;7.330;2023-11-21T04:48:13;13.30;99.90
62998;DHT22;55949;52.590;7.330;2023-11-21T04:49:14;13.30;99.90
62998;DHT22;55949;52.590;7.330;2023-11-21T04:50:15;13.30;99.90
62998;DHT22;55949;52.590;7.330;2023-11-21T04:51:16;13.20;99.90
62998;DHT22;55949;52.590;7.330;2023-11-21T04:52:17;13.20;99.90
62998;DHT22;55949;52.590;7.330;2023-11-21T04:53:17;13.30;99.90
62998;DHT22;55949;52.590;7.330;2023-11-21T04:54:18;13.30;99.90
62998;DHT22;55949;52.590;7.330;2023-11-21T04:55:19;13.20;99.90
62998;DHT22;55949;52.590;7.330;2023-11-21T04:56:20;13.10;99.90
62998;DHT22;55949;52.590;7.330;2023-11-21T04:57:21;13.10;99.90
62998;DHT22;55949;52.590;7.330;2023-11-21T04:58:22;13.10;99.90
62998;DHT22;55949;52.590;7.330;2023-11-21T04:59:23;13.10;99.90
62998;DHT22;55949;52.590;7.330;2023-11-21T05:00:25;13.10;99.90
62998;DHT22;55949;52.590;7.330;2023-11-21T05:01:25;13.10;99.90
62998;DHT22;55949;52.590;7.330;2023-11-21T05:02:26;13.00;99.90
62998;DHT22;55949;52.590;7.330;2023-11-21T05:03:27;13.10;99.90
62998;DHT22;55949;52.590;7.330;2023-11-21T05:04:30;13.00;99.90
62998;DHT22;55949;52.590;7.330;2023-11-21T05:05:31;13.10;99.90
62998;DHT22;55949;52.590;7.330;2023-11-21T05:06:31;13.20;99.90
62998;DHT22;55949;52.590;7.330;2023-11-21T05:07:33;13.20;99.90
62998;DHT22;55949;52.590;7.330;2023-11-21T05:08:35;13.30;99.90
62998;DHT22;55949;52.590;7.330;2023-11-21T05:09:41;13.30;99.90
62998;DHT22;55949;52.590;7.330;2023-11-21T05:10:42;13.40;99.90
62998;DHT22;55949;52.590;7.330;2023-11-21T05:11:42;13.40;99.90
62998;DHT22;55949;52.590;7.330;2023-11-21T05:12:43;13.40;99.90
62998;DHT22;55949;52.590;7.330;2023-11-21T05:13:44;13.50;99.90
62998;DHT22;55949;52.590;7.330;2023-11-21T05:14:45;13.50;99.90
62998;DHT22;55949;52.590;7.330;2023-11-21T05:15:47;13.40;99.90
62998;DHT22;55949;52.590;7.330;2023-11-21T05:16:48;13.30;99.90
62998;DHT22;55949;52.590;7.330;2023-11-21T05:17:48;13.30;99.90
62998;DHT22;55949;52.590;7.330;2023-11-21T05:18:50;13.30;99.90
62998;DHT22;55949;52.590;7.330;2023-11-21T05:19:51;13.20;99.90
62998;DHT22;55949;52.590;7.330;2023-11-21T05:20:52;13.20;99.90
62998;DHT22;55949;52.590;7.330;2023-11-21T05:21:53;13.30;99.90
62998;DHT22;55949;52.590;7.330;2023-11-21T05:22:54;13.20;99.90
62998;DHT22;55949;52.590;7.330;2023-11-21T05:23:54;13.30;99.90
62998;DHT22;55949;52.590;7.330;2023-11-21T05:24:56;13.30;99.90
62998;DHT22;55949;52.590;7.330;2023-11-21T05:25:56;13.20;99.90
62998;DHT22;55949;52.590;7.330;2023-11-21T05:26:57;13.20;99.90
62998;DHT22;55949;52.590;7.330;2023-11-21T05:27:58;13.10;99.90
62998;DHT22;55949;52.590;7.330;2023-11-21T05:29:01;13.20;99.90
62998;DHT22;55949;52.590;7.330;2023-11-21T05:30:05;13.30;99.90
62998;DHT22;55949;52.590;7.330;2023-11-21T05:31:06;13.30;99.90
62998;DHT22;55949;52.590;7.330;2023-11-21T05:32:07;13.30;99.90
62998;DHT22;55949;52.590;7.330;2023-11-21T05:33:07;13.30;99.90
62998;DHT22;55949;52.590;7.330;2023-11-21T05:34:08;13.20;99.90
62998;DHT22;55949;52.590;7.330;2023-11-21T05:35:09;13.00;99.90
62998;DHT22;55949;52.590;7.330;2023-11-21T05:36:12;12.80;99.90
62998;DHT22;55949;52.590;7.330;2023-11-21T05:37:13;13.00;99.90
62998;DHT22;55949;52.590;7.330;2023-11-21T05:38:14;13.00;99.90
62998;DHT22;55949;52.590;7.330;2023-11-21T05:39:15;13.00;99.90
62998;DHT22;55949;52.590;7.330;2023-11-21T05:40:17;13.00;99.90
62998;DHT22;55949;52.590;7.330;2023-11-21T05:41:18;13.00;99.90
62998;DHT22;55949;52.590;7.330;2023-11-21T05:42:19;13.10;99.90
62998;DHT22;55949;52.590;7.330;2023-11-21T05:43:21;13.10;99.90
62998;DHT22;55949;52.590;7.330;2023-11-21T05:44:23;13.10;99.90
62998;DHT22;55949;52.590;7.330;2023-11-21T05:45:24;13.20;99.90
62998;DHT22;55949;52.590;7.330;2023-11-21T05:46:24;13.10;99.90
62998;DHT22;55949;52.590;7.330;2023-11-21T05:47:25;13.10;99.90
62998;DHT22;55949;52.590;7.330;2023-11-21T05:48:26;13.00;99.90
62998;DHT22;55949;52.590;7.330;2023-11-21T05:49:27;12.90;99.90
62998;DHT22;55949;52.590;7.330;2023-11-21T05:50:28;12.90;99.90
62998;DHT22;55949;52.590;7.330;2023-11-21T05:51:28;12.90;99.90
62998;DHT22;55949;52.590;7.330;2023-11-21T05:52:29;13.00;99.90
62998;DHT22;55949;52.590;7.330;2023-11-21T05:53:30;12.80;99.90
62998;DHT22;55949;52.590;7.330;2023-11-21T05:54:31;12.50;99.90
62998;DHT22;55949;52.590;7.330;2023-11-21T05:55:32;12.40;99.90
62998;DHT22;55949;52.590;7.330;2023-11-21T05:56:33;12.30;99.90
62998;DHT22;55949;52.590;7.330;2023-11-21T05:57:35;12.40;99.90
62998;DHT22;55949;52.590;7.330;2023-11-21T05:58:38;12.50;99.90
62998;DHT22;55949;52.590;7.330;2023-11-21T05:59:39;12.30;99.90
62998;DHT22;55949;52.590;7.330;2023-11-21T06:00:40;12.20;99.90
62998;DHT22;55949;52.590;7.330;2023-11-21T06:01:41;12.30;99.90
62998;DHT22;55949;52.590;7.330;2023-11-21T06:02:42;12.30;99.90
62998;DHT22;55949;52.590;7.330;2023-11-21T06:03:42;12.10;99.90
62998;DHT22;55949;52.590;7.330;2023-11-21T06:04:43;12.10;99.90
62998;DHT22;55949;52.590;7.330;2023-11-21T06:05:44;12.20;99.90
62998;DHT22;55949;52.590;7.330;2023-11-21T06:06:45;12.40;99.90
62998;DHT22;55949;52.590;7.330;2023-11-21T06:07:45;12.40;99.90
62998;DHT22;55949;52.590;7.330;2023-11-21T06:08:46;12.40;99.90
62998;DHT22;55949;52.590;7.330;2023-11-21T06:09:47;12.60;99.90
62998;DHT22;55949;52.590;7.330;2023-11-21T06:10:50;12.70;99.90
62998;DHT22;55949;52.590;7.330;2023-11-21T06:11:51;12.80;99.90
62998;DHT22;55949;52.590;7.330;2023-11-21T06:12:52;12.90;99.90
62998;DHT22;55949;52.590;7.330;2023-11-21T06:13:53;12.90;99.90
62998;DHT22;55949;52.590;7.330;2023-11-21T06:14:54;12.90;99.90
62998;DHT22;55949;52.590;7.330;2023-11-21T06:15:56;13.00;99.90
62998;DHT22;55949;52.590;7.330;2023-11-21T06:16:56;13.00;99.90
62998;DHT22;55949;52.590;7.330;2023-11-21T06:17:58;13.10;99.90
62998;DHT22;55949;52.590;7.330;2023-11-21T06:18:59;13.00;99.90
62998;DHT22;55949;52.590;7.330;2023-11-21T06:19:59;12.90;99.90
62998;DHT22;55949;52.590;7.330;2023-11-21T06:21:01;12.70;99.90
62998;DHT22;55949;52.590;7.330;2023-11-21T06:22:02;12.60;99.90
62998;DHT22;55949;52.590;7.330;2023-11-21T06:23:02;12.60;99.90
62998;DHT22;55949;52.590;7.330;2023-11-21T06:24:04;12.50;99.90
62998;DHT22;55949;52.590;7.330;2023-11-21T06:25:06;12.30;99.90
62998;DHT22;55949;52.590;7.330;2023-11-21T06:26:08;12.30;99.90